Time;durP1;ratioP1;P1;durP2;ratioP2;P2;SDS_P1;SDS_P2;PMS_P1;PMS_P2;Temp;Humidity;BMP_temperature;BMP_pressure;BME280_temperature;BME280_humidity;BME280_pressure;Samples;Min_cycle;Max_cycle;Signal;HPM_P1;HPM_P2
2022/01/20 00:01:15;;;;;;;135.68;81.38;;;;;;;1.30;49.69;101916.72;5069736;28;20489;-72
2022/01/20 00:03:43;;;;;;;134.48;84.00;;;;;;;1.08;50.72;101907.72;5081720;28;20442;-70
2022/01/20 00:09:35;;;;;;;108.27;70.23;;;;;;;1.01;50.62;101914.81;5065019;28;20405;-71
2022/01/20 00:23:16;;;;;;;88.22;56.45;;;;;;;1.24;50.30;101911.66;5083959;28;20421;-71
2022/01/20 00:25:55;;;;;;;88.80;54.83;;;;;;;1.33;49.83;101911.41;5075544;28;20913;-70
2022/01/20 00:28:38;;;;;;;81.43;51.83;;;;;;;1.29;50.00;101919.38;5075318;28;20945;-69
2022/01/20 00:31:11;;;;;;;94.93;61.13;;;;;;;1.67;48.82;101910.56;5077941;28;20451;-71
2022/01/20 00:33:43;;;;;;;63.80;41.63;;;;;;;1.66;48.14;101913.19;5082104;28;20476;-70
2022/01/20 00:38:55;;;;;;;92.03;56.13;;;;;;;1.54;48.67;101907.41;5074142;28;20446;-68
2022/01/20 00:41:21;;;;;;;98.90;61.55;;;;;;;1.76;48.21;101899.88;5086744;28;20497;-68
2022/01/20 00:43:50;;;;;;;76.15;45.40;;;;;;;1.71;48.06;101904.34;5086547;28;20424;-69
2022/01/20 00:46:17;;;;;;;66.45;39.67;;;;;;;1.67;47.69;101897.50;5079445;28;20500;-70
2022/01/20 00:48:44;;;;;;;62.53;39.08;;;;;;;1.67;47.43;101897.50;5082391;28;20504;-69
2022/01/20 00:51:11;;;;;;;37.33;22.55;;;;;;;0.92;49.05;101894.16;5086827;28;20505;-68
2022/01/20 00:53:43;;;;;;;51.67;34.05;;;;;;;0.82;49.91;101893.50;5087561;28;20492;-69
2022/01/20 00:56:11;;;;;;;49.37;30.93;;;;;;;0.78;49.85;101891.88;5084309;28;20506;-67
2022/01/20 00:58:38;;;;;;;49.13;30.73;;;;;;;0.68;50.48;101892.97;5085927;28;20988;-68
2022/01/20 01:01:06;;;;;;;43.80;29.80;;;;;;;0.63;51.03;101893.09;5087508;28;20440;-69
2022/01/20 01:03:33;;;;;;;44.75;29.27;;;;;;;0.65;51.22;101898.25;5086879;28;20987;-68
2022/01/20 01:06:11;;;;;;;44.90;29.52;;;;;;;0.84;51.18;101889.13;5086907;28;20495;-70
2022/01/20 01:08:39;;;;;;;52.28;37.97;;;;;;;0.92;52.36;101884.56;5080569;28;20413;-69
2022/01/20 01:11:06;;;;;;;53.97;38.47;;;;;;;0.93;53.82;101881.09;5082271;28;20458;-70
2022/01/20 01:13:33;;;;;;;57.90;38.83;;;;;;;1.11;53.42;101878.91;5086526;28;20865;-69
2022/01/20 01:16:00;;;;;;;58.58;41.40;;;;;;;1.02;54.37;101873.94;5087139;28;20504;-69
2022/01/20 01:21:26;;;;;;;73.45;49.83;;;;;;;0.91;55.55;101868.94;5080107;28;20481;-70
2022/01/20 01:23:53;;;;;;;56.67;41.15;;;;;;;0.93;56.25;101862.81;5074386;28;20421;-69
2022/01/20 01:26:22;;;;;;;62.17;41.05;;;;;;;0.98;55.36;101855.72;5107732;27;20904;-69
2022/01/20 01:28:50;;;;;;;56.65;39.33;;;;;;;0.87;56.79;101847.28;5073134;28;20422;-70
2022/01/20 01:34:08;;;;;;;55.45;37.45;;;;;;;0.90;55.75;101842.00;5079636;28;20413;-70
2022/01/20 01:36:49;;;;;;;54.97;38.22;;;;;;;0.88;55.60;101840.34;5073352;28;20415;-70
2022/01/20 01:39:16;;;;;;;53.97;37.22;;;;;;;0.89;55.58;101842.94;5073544;28;20513;-70
2022/01/20 01:41:44;;;;;;;57.67;39.23;;;;;;;0.75;57.10;101838.03;5074821;28;20500;-69
2022/01/20 01:44:19;;;;;;;49.25;34.53;;;;;;;0.94;56.37;101835.81;5071921;28;20415;-70
2022/01/20 01:46:46;;;;;;;53.88;36.40;;;;;;;1.36;53.73;101834.78;5073340;28;20472;-70
2022/01/20 01:49:14;;;;;;;49.10;33.85;;;;;;;1.51;52.79;101825.66;5072300;28;20425;-70
2022/01/20 01:51:41;;;;;;;41.00;29.45;;;;;;;1.22;52.65;101827.31;5073012;28;20410;-69
2022/01/20 01:54:08;;;;;;;38.72;26.42;;;;;;;1.12;53.25;101824.06;5074734;28;20500;-70
2022/01/20 01:56:36;;;;;;;38.05;26.58;;;;;;;0.94;52.55;101822.78;5075743;28;20784;-70
2022/01/20 01:59:03;;;;;;;33.90;20.73;;;;;;;0.80;51.96;101817.91;5072145;28;20427;-69
2022/01/20 02:01:33;;;;;;;28.52;18.73;;;;;;;0.51;51.68;101816.00;5074403;28;20415;-70
2022/01/20 02:04:11;;;;;;;27.92;17.10;;;;;;;0.84;50.36;101821.28;5073517;28;20481;-68
2022/01/20 02:07:03;;;;;;;23.83;14.43;;;;;;;0.91;49.87;101815.03;5072894;28;20472;-70
2022/01/20 02:17:47;;;;;;;28.27;16.95;;;;;;;1.22;48.69;101816.88;5072477;28;20410;-70
2022/01/20 02:18:12;;;;;;;36.00;23.55;;;;;;;0.43;50.24;101796.19;5075852;28;20441;-70
2022/01/20 02:20:40;;;;;;;26.45;15.23;;;;;;;0.28;51.67;101784.38;5074214;28;20518;-68
2022/01/20 02:23:08;;;;;;;24.58;14.77;;;;;;;0.19;52.27;101788.91;5074797;28;20420;-70
2022/01/20 02:25:37;;;;;;;21.88;13.50;;;;;;;0.22;52.26;101776.69;5072289;28;20419;-70
2022/01/20 02:28:06;;;;;;;21.38;13.85;;;;;;;0.24;52.24;101764.47;5073315;28;20459;-70
2022/01/20 02:30:34;;;;;;;22.02;13.55;;;;;;;0.19;52.40;101767.22;5073861;28;20502;-70
2022/01/20 02:33:04;;;;;;;23.50;14.30;;;;;;;0.25;52.14;101763.59;5071626;28;20865;-69
2022/01/20 02:35:34;;;;;;;23.00;14.70;;;;;;;0.15;52.67;101766.41;5073030;28;20419;-70
2022/01/20 02:38:09;;;;;;;35.13;21.42;;;;;;;0.71;51.19;101759.88;5072742;28;20454;-69
2022/01/20 02:46:11;;;;;;;30.40;18.48;;;;;;;0.18;52.13;101734.19;5037219;28;20914;-70
2022/01/20 02:48:38;;;;;;;40.20;23.63;;;;;;;0.09;52.18;101735.28;5074956;28;20823;-70
2022/01/20 02:51:05;;;;;;;46.15;29.73;;;;;;;0.13;52.09;101736.06;5071289;28;20415;-70
2022/01/20 02:53:34;;;;;;;38.85;23.02;;;;;;;0.32;50.63;101737.34;5073834;28;20415;-70
2022/01/20 02:56:01;;;;;;;30.70;18.73;;;;;;;0.13;50.89;101733.47;5071943;28;20410;-70
2022/01/20 02:58:28;;;;;;;27.33;17.35;;;;;;;0.34;50.50;101739.91;5070830;28;20497;-70
2022/01/20 03:00:55;;;;;;;29.02;17.17;;;;;;;0.75;49.12;101732.81;5070670;28;20936;-70
2022/01/20 03:03:21;;;;;;;25.83;15.98;;;;;;;0.73;48.63;101732.88;5073514;28;20430;-70
2022/01/20 03:05:48;;;;;;;21.58;12.70;;;;;;;0.76;47.99;101735.41;5071045;28;20419;-70
2022/01/20 03:08:15;;;;;;;20.77;12.20;;;;;;;0.86;47.26;101748.22;5071575;28;20495;-70
2022/01/20 03:10:44;;;;;;;21.33;13.15;;;;;;;0.88;47.19;101731.63;5070613;28;20419;-70
2022/01/20 03:13:11;;;;;;;23.10;15.55;;;;;;;0.88;47.37;101736.84;5070413;28;20912;-70
2022/01/20 03:15:38;;;;;;;25.52;16.42;;;;;;;0.88;47.45;101736.00;5072865;28;20425;-70
2022/01/20 03:18:05;;;;;;;27.35;16.23;;;;;;;0.92;47.42;101738.47;5071254;28;20415;-70
2022/01/20 03:20:33;;;;;;;28.03;17.90;;;;;;;0.84;47.57;101732.59;5069808;28;20828;-70
2022/01/20 03:23:00;;;;;;;23.45;14.65;;;;;;;0.88;47.39;101729.00;5070091;28;20853;-68
2022/01/20 03:25:28;;;;;;;20.92;14.27;;;;;;;0.82;47.23;101726.56;5071857;28;20413;-70
2022/01/20 03:27:58;;;;;;;23.38;17.33;;;;;;;0.77;48.01;101725.81;5070530;28;20411;-70
2022/01/20 03:30:25;;;;;;;23.13;16.07;;;;;;;0.75;47.72;101727.59;5069641;28;20874;-70
2022/01/20 03:32:52;;;;;;;21.95;16.02;;;;;;;0.78;47.68;101725.78;5070095;28;20419;-70
2022/01/20 03:35:19;;;;;;;20.98;14.55;;;;;;;0.65;48.03;101718.31;5069933;28;20510;-70
2022/01/20 03:37:46;;;;;;;26.35;17.85;;;;;;;0.71;47.71;101718.16;5069662;28;20503;-70
2022/01/20 03:40:14;;;;;;;33.37;23.73;;;;;;;0.44;48.48;101715.34;5072959;28;20501;-70
2022/01/20 03:42:41;;;;;;;25.45;16.45;;;;;;;0.52;48.50;101708.19;5069266;28;20425;-69
2022/01/20 03:45:10;;;;;;;24.00;16.45;;;;;;;0.29;48.63;101707.91;5068898;28;20798;-70
2022/01/20 03:47:37;;;;;;;40.00;23.17;;;;;;;-0.12;49.49;101712.31;5072472;28;20415;-70
2022/01/20 03:50:59;;;;;;;52.40;26.85;;;;;;;-0.53;50.30;101717.50;5083807;28;20414;-70
2022/01/20 03:52:56;;;;;;;14.32;9.43;;;;;;;-0.41;50.27;101709.47;5088512;28;20462;-71
2022/01/20 03:55:23;;;;;;;19.35;11.90;;;;;;;-0.21;50.35;101706.41;5088814;28;20504;-71
2022/01/20 03:57:49;;;;;;;19.88;13.32;;;;;;;0.18;49.13;101706.41;5088272;28;20413;-71
2022/01/20 04:00:18;;;;;;;23.20;14.82;;;;;;;0.26;48.96;101713.19;5088183;28;20421;-71
2022/01/20 04:02:45;;;;;;;24.67;17.55;;;;;;;0.48;48.82;101711.75;5088572;28;20412;-71
2022/01/20 04:05:12;;;;;;;24.65;16.02;;;;;;;0.55;48.64;101710.72;5088788;28;20496;-72
2022/01/20 04:07:39;;;;;;;21.95;14.70;;;;;;;0.70;49.82;101701.66;5087069;28;20416;-70
2022/01/20 04:10:06;;;;;;;21.15;15.70;;;;;;;0.54;49.17;101701.19;5071560;28;20422;-70
2022/01/20 04:12:33;;;;;;;25.35;16.10;;;;;;;0.37;50.56;101692.94;5072483;28;21040;-71
2022/01/20 04:15:07;;;;;;;28.93;18.80;;;;;;;0.44;50.65;101686.66;5069168;28;20899;-69
2022/01/20 04:17:39;;;;;;;33.00;20.63;;;;;;;0.67;50.09;101693.91;5071288;28;20446;-71
2022/01/20 04:20:07;;;;;;;25.02;19.00;;;;;;;0.69;49.53;101680.81;5073312;28;20426;-70
2022/01/20 04:22:34;;;;;;;32.13;21.67;;;;;;;0.56;49.60;101681.13;5074968;28;20425;-72
2022/01/20 04:25:01;;;;;;;32.65;21.00;;;;;;;0.12;49.80;101677.91;5070882;28;20865;-70
2022/01/20 04:27:28;;;;;;;26.38;18.20;;;;;;;0.31;51.28;101682.66;5070832;28;20514;-71
2022/01/20 04:29:56;;;;;;;36.85;20.95;;;;;;;0.39;49.98;101685.94;5073304;28;20422;-70
2022/01/20 04:32:24;;;;;;;84.83;65.53;;;;;;;0.38;49.91;101687.66;5072069;28;20466;-70
2022/01/20 04:34:52;;;;;;;32.25;23.40;;;;;;;0.35;50.45;101676.47;5072414;28;20420;-70
2022/01/20 04:37:19;;;;;;;41.65;29.98;;;;;;;0.14;52.38;101670.91;5072227;28;20421;-71
2022/01/20 04:39:49;;;;;;;33.58;20.90;;;;;;;-0.06;53.65;101662.66;5069280;28;20422;-71
2022/01/20 04:42:17;;;;;;;29.17;21.17;;;;;;;-0.11;54.60;101665.41;5075154;28;20476;-71
2022/01/20 04:44:49;;;;;;;25.80;18.92;;;;;;;-0.40;55.96;101663.47;5070639;28;20421;-71
2022/01/20 04:47:27;;;;;;;44.77;37.43;;;;;;;-0.40;56.81;101666.06;5071297;28;20415;-71
2022/01/20 04:58:08;;;;;;;62.28;47.72;;;;;;;0.44;51.61;101657.13;5072888;28;20417;-71
2022/01/20 05:00:35;;;;;;;62.15;43.78;;;;;;;0.37;50.87;101662.50;5076929;28;20511;-71
2022/01/20 05:03:04;;;;;;;65.50;42.93;;;;;;;0.06;50.33;101656.31;5074682;28;20515;-72
2022/01/20 05:05:33;;;;;;;71.47;45.17;;;;;;;-0.06;49.96;101663.56;5073341;28;20839;-71
2022/01/20 05:08:00;;;;;;;55.28;36.67;;;;;;;0.15;49.17;101664.78;5076734;28;20920;-72
2022/01/20 05:10:29;;;;;;;60.15;38.20;;;;;;;0.18;49.29;101662.13;5078748;28;20421;-71
2022/01/20 05:13:12;;;;;;;59.43;38.73;;;;;;;0.11;49.30;101665.75;5074545;28;20415;-71
2022/01/20 05:15:40;;;;;;;65.75;42.60;;;;;;;0.16;49.35;101658.69;5090928;28;20409;-71
2022/01/20 05:18:08;;;;;;;73.68;40.55;;;;;;;0.06;49.04;101677.16;5091443;28;20878;-71
2022/01/20 05:20:36;;;;;;;73.70;51.08;;;;;;;0.13;49.24;101669.16;5090098;28;20792;-72
2022/01/20 05:23:03;;;;;;;76.70;50.50;;;;;;;0.07;49.52;101674.53;5091874;28;20423;-71
2022/01/20 05:25:30;;;;;;;63.60;38.90;;;;;;;-0.22;49.71;101673.47;5091535;28;20795;-72
2022/01/20 05:27:57;;;;;;;63.38;41.42;;;;;;;-0.10;49.11;101680.16;5091086;28;20428;-73
2022/01/20 05:30:24;;;;;;;68.03;44.03;;;;;;;-0.18;49.05;101668.16;5090941;28;20417;-72
2022/01/20 05:32:51;;;;;;;79.28;54.85;;;;;;;-0.39;49.35;101677.31;5091900;28;20962;-72
2022/01/20 05:35:18;;;;;;;71.53;43.58;;;;;;;-0.31;48.79;101665.84;5089290;28;20447;-72
2022/01/20 05:37:46;;;;;;;67.72;41.58;;;;;;;-0.37;48.77;101681.59;5091216;28;20517;-72
2022/01/20 05:40:14;;;;;;;74.20;46.97;;;;;;;-0.63;49.22;101675.22;5088012;28;20512;-72
2022/01/20 05:42:41;;;;;;;87.85;51.60;;;;;;;-0.53;48.93;101667.19;5090360;28;20436;-73
2022/01/20 05:45:09;;;;;;;82.13;49.03;;;;;;;-0.45;49.30;101665.28;5088700;28;20436;-72
2022/01/20 05:47:43;;;;;;;79.28;48.63;;;;;;;-0.30;48.85;101664.13;5088570;28;20449;-72
2022/01/20 05:50:11;;;;;;;76.38;48.35;;;;;;;-0.23;48.54;101658.72;5088888;28;20966;-72
2022/01/20 05:52:41;;;;;;;73.95;51.03;;;;;;;-0.08;49.40;101661.84;5084439;28;20419;-70
2022/01/20 05:55:11;;;;;;;82.85;55.53;;;;;;;-0.37;50.16;101663.38;5074349;28;20447;-71
2022/01/20 05:57:40;;;;;;;107.78;61.75;;;;;;;-0.33;50.54;101656.34;5074007;28;20400;-71
2022/01/20 06:00:10;;;;;;;116.40;65.93;;;;;;;-0.28;50.57;101665.78;5076711;28;20429;-70
2022/01/20 06:03:36;;;;;;;94.78;52.78;;;;;;;0.37;50.95;101672.94;5083964;28;20492;-72
2022/01/20 06:05:24;;;;;;;101.88;57.05;;;;;;;1.14;48.40;101670.06;5087243;28;20409;-70
2022/01/20 06:07:51;;;;;;;123.70;71.85;;;;;;;1.20;47.12;101675.09;5084353;28;20413;-70
2022/01/20 06:10:19;;;;;;;118.22;76.03;;;;;;;2.76;44.27;101674.53;5082682;28;20407;-70
2022/01/20 06:12:46;;;;;;;110.28;70.85;;;;;;;3.94;42.36;101668.41;5085686;28;20416;-72
2022/01/20 06:15:14;;;;;;;116.55;67.75;;;;;;;4.99;39.75;101664.91;5086865;28;20417;-71
2022/01/20 06:17:41;;;;;;;97.65;68.22;;;;;;;6.31;38.32;101669.25;5086830;28;20416;-72
2022/01/20 06:20:10;;;;;;;94.30;64.13;;;;;;;7.65;35.27;101656.97;5084817;28;20425;-72
2022/01/20 06:22:37;;;;;;;77.68;55.72;;;;;;;8.40;34.33;101665.03;5088109;28;21002;-71
2022/01/20 06:25:05;;;;;;;97.00;65.80;;;;;;;9.20;32.20;101674.34;5089178;28;20445;-72
2022/01/20 06:27:34;;;;;;;85.05;59.72;;;;;;;10.26;30.61;101676.44;5087447;28;20443;-72
2022/01/20 06:30:01;;;;;;;96.07;64.63;;;;;;;11.22;29.07;101684.97;5090142;28;20484;-72
2022/01/20 06:32:28;;;;;;;83.63;62.67;;;;;;;11.65;28.33;101694.34;5090178;28;20990;-72
2022/01/20 06:34:55;;;;;;;80.85;62.08;;;;;;;12.21;27.35;101686.72;5090220;28;20416;-73
2022/01/20 06:37:22;;;;;;;89.20;66.82;;;;;;;12.42;26.51;101689.56;5090159;28;20504;-72
2022/01/20 06:39:49;;;;;;;120.65;85.55;;;;;;;12.65;26.01;101689.66;5090267;28;20405;-72
2022/01/20 06:42:16;;;;;;;109.70;76.32;;;;;;;13.90;24.43;101694.06;5090367;28;20501;-71
2022/01/20 06:44:45;;;;;;;101.65;73.65;;;;;;;14.91;23.63;101690.13;5090666;28;20409;-72
2022/01/20 06:47:12;;;;;;;66.57;52.30;;;;;;;15.78;22.54;101690.50;5070291;28;20438;-71
2022/01/20 06:49:40;;;;;;;74.65;61.00;;;;;;;16.56;21.55;101687.84;5083795;28;20413;-71
2022/01/20 06:52:08;;;;;;;65.55;56.95;;;;;;;17.59;20.66;101688.81;5088891;28;20768;-69
2022/01/20 06:54:35;;;;;;;65.18;55.08;;;;;;;17.96;20.14;101684.41;5070301;28;20411;-69
2022/01/20 06:57:02;;;;;;;59.60;50.92;;;;;;;18.82;19.28;101689.19;5069198;28;20419;-71
2022/01/20 06:59:29;;;;;;;53.20;47.35;;;;;;;19.99;18.20;101685.88;5070705;28;20438;-71
2022/01/20 07:01:58;;;;;;;57.90;51.55;;;;;;;19.29;18.41;101688.78;5090097;28;20508;-70
2022/01/20 07:04:26;;;;;;;66.60;56.97;;;;;;;20.06;17.82;101687.91;5069873;28;20501;-70
2022/01/20 07:06:54;;;;;;;62.50;55.75;;;;;;;21.47;16.60;101685.75;5082431;28;20428;-70
2022/01/20 07:09:21;;;;;;;71.22;62.67;;;;;;;22.55;15.76;101682.16;5089766;28;20492;-71
2022/01/20 07:11:48;;;;;;;50.63;44.53;;;;;;;22.18;15.37;101686.50;5089572;28;20449;-71
2022/01/20 07:14:15;;;;;;;60.38;53.72;;;;;;;22.18;15.12;101680.22;5089228;28;20903;-72
2022/01/20 07:16:41;;;;;;;61.05;54.42;;;;;;;22.53;14.83;101673.41;5089575;28;20406;-71
2022/01/20 07:19:10;;;;;;;67.25;60.30;;;;;;;24.09;13.96;101670.72;5089418;28;20409;-71
2022/01/20 07:21:37;;;;;;;47.63;40.50;;;;;;;23.50;14.18;101661.72;5088611;28;20511;-71
2022/01/20 07:24:04;;;;;;;44.33;39.58;;;;;;;23.85;13.54;101647.56;5089656;28;20417;-72
2022/01/20 07:26:31;;;;;;;43.55;38.60;;;;;;;24.83;13.00;101643.19;5089332;28;20412;-69
2022/01/20 07:28:58;;;;;;;59.00;49.22;;;;;;;24.32;13.60;101638.00;5089632;28;20504;-70
2022/01/20 07:31:25;;;;;;;53.20;45.88;;;;;;;25.18;12.70;101640.44;5089224;28;20488;-70
2022/01/20 07:33:53;;;;;;;61.17;46.10;;;;;;;25.72;13.16;101633.38;5089526;28;20441;-69
2022/01/20 07:36:21;;;;;;;47.70;39.47;;;;;;;25.52;13.29;101642.28;5089465;28;20483;-69
2022/01/20 07:38:48;;;;;;;54.03;43.35;;;;;;;26.80;12.20;101635.94;5089389;28;20435;-69
2022/01/20 07:41:15;;;;;;;50.17;43.63;;;;;;;27.65;11.77;101644.00;5088955;28;20516;-69
2022/01/20 07:43:42;;;;;;;44.03;39.37;;;;;;;28.51;10.76;101628.94;5089637;28;20401;-69
2022/01/20 07:46:09;;;;;;;46.92;42.08;;;;;;;28.76;10.52;101633.53;5089381;28;20409;-70
2022/01/20 07:48:36;;;;;;;47.78;42.83;;;;;;;29.81;10.34;101629.72;5088982;28;20416;-70
2022/01/20 07:51:05;;;;;;;44.72;39.78;;;;;;;30.06;10.54;101636.88;5084972;28;20417;-68
2022/01/20 07:53:34;;;;;;;45.33;40.63;;;;;;;30.84;10.46;101638.47;5088320;28;20445;-70
2022/01/20 07:56:01;;;;;;;32.17;27.88;;;;;;;30.33;9.39;101631.81;5087083;28;20405;-69
2022/01/20 07:58:28;;;;;;;21.77;18.75;;;;;;;30.77;8.65;101632.28;5088382;28;20492;-70
2022/01/20 08:00:55;;;;;;;16.10;12.13;;;;;;;31.04;8.25;101640.81;5085464;28;20421;-71
2022/01/20 08:03:22;;;;;;;10.70;8.38;;;;;;;29.71;8.43;101640.38;5084803;28;20411;-70
2022/01/20 08:05:49;;;;;;;10.02;7.85;;;;;;;30.36;8.32;101625.91;5085099;28;20417;-70
2022/01/20 08:08:16;;;;;;;12.37;9.20;;;;;;;29.93;8.34;101654.31;5089096;28;20492;-70
2022/01/20 08:10:44;;;;;;;10.57;8.70;;;;;;;30.84;7.76;101646.69;5084642;28;20913;-70
2022/01/20 08:13:11;;;;;;;11.52;9.55;;;;;;;31.12;7.43;101639.63;5069834;28;20417;-70
2022/01/20 08:15:38;;;;;;;10.52;7.22;;;;;;;30.53;7.80;101645.97;5069460;28;20510;-70
2022/01/20 08:18:06;;;;;;;5.88;5.25;;;;;;;30.50;7.42;101643.72;5069272;28;20875;-70
2022/01/20 08:20:33;;;;;;;8.25;5.70;;;;;;;31.12;7.26;101645.09;5069213;28;20419;-71
2022/01/20 08:23:00;;;;;;;7.50;6.70;;;;;;;30.70;7.49;101635.16;5069538;28;20466;-71
2022/01/20 08:25:27;;;;;;;7.07;6.38;;;;;;;32.24;6.82;101631.81;5069273;28;20487;-71
2022/01/20 08:27:56;;;;;;;8.05;5.75;;;;;;;31.88;6.75;101639.44;5069425;28;20515;-71
2022/01/20 08:30:25;;;;;;;6.20;5.10;;;;;;;31.68;6.73;101613.34;5068940;28;20479;-70
2022/01/20 08:32:52;;;;;;;7.68;4.90;;;;;;;31.94;6.84;101631.06;5072424;28;20514;-72
2022/01/20 08:35:21;;;;;;;6.65;5.22;;;;;;;32.87;6.18;101629.78;5073295;28;20502;-72
2022/01/20 08:37:48;;;;;;;8.03;4.57;;;;;;;31.46;6.71;101632.38;5073356;28;20410;-71
2022/01/20 08:40:18;;;;;;;6.03;4.50;;;;;;;32.40;6.26;101631.00;5086853;28;20786;-70
2022/01/20 08:42:48;;;;;;;8.20;5.60;;;;;;;32.07;6.23;101624.44;5091095;28;20501;-69
2022/01/20 08:45:21;;;;;;;6.60;4.70;;;;;;;31.11;6.59;101632.50;5089177;28;20495;-69
2022/01/20 08:47:49;;;;;;;7.38;5.18;;;;;;;32.10;6.24;101623.97;5087087;28;20886;-70
2022/01/20 08:50:16;;;;;;;8.63;5.25;;;;;;;32.18;6.15;101630.09;5090840;28;20945;-70
2022/01/20 08:52:43;;;;;;;6.95;5.38;;;;;;;32.00;6.14;101628.44;5091617;28;20417;-70
2022/01/20 08:55:10;;;;;;;7.15;4.97;;;;;;;31.80;6.14;101617.94;5091413;28;20506;-70
2022/01/20 08:57:37;;;;;;;6.32;4.40;;;;;;;32.10;5.99;101614.91;5088015;28;20409;-70
2022/01/20 09:00:07;;;;;;;9.57;4.25;;;;;;;31.43;6.30;101624.66;5073650;28;20493;-67
2022/01/20 09:02:36;;;;;;;5.83;4.40;;;;;;;32.31;5.99;101624.28;5071746;28;20426;-71
2022/01/20 09:05:04;;;;;;;7.23;5.00;;;;;;;31.92;6.30;101630.47;5071995;28;20406;-71
2022/01/20 09:07:31;;;;;;;5.90;4.30;;;;;;;31.35;6.30;101636.81;5072398;28;20881;-71
2022/01/20 09:10:00;;;;;;;6.47;5.53;;;;;;;32.76;5.93;101625.22;5073024;28;20405;-71
2022/01/20 09:15:29;;;;;;;7.45;5.68;;;;;;;33.02;5.65;101629.13;5087162;28;20401;-72
2022/01/20 09:17:58;;;;;;;5.28;4.60;;;;;;;32.64;5.82;101630.81;5092562;28;20445;-70
2022/01/20 09:20:26;;;;;;;5.65;4.88;;;;;;;33.35;5.68;101624.59;5092519;28;20499;-72
2022/01/20 09:22:55;;;;;;;6.07;4.80;;;;;;;33.85;5.42;101615.22;5092493;28;20432;-72
2022/01/20 09:25:22;;;;;;;6.68;5.25;;;;;;;34.45;5.18;101619.53;5092758;28;20435;-72
2022/01/20 09:27:51;;;;;;;6.68;4.57;;;;;;;35.23;4.96;101618.81;5092468;28;20405;-72
2022/01/20 09:30:19;;;;;;;6.40;4.88;;;;;;;33.04;5.53;101605.00;5092454;28;20405;-72
2022/01/20 09:32:57;;;;;;;10.75;4.70;;;;;;;33.24;5.63;101612.66;5092336;28;20903;-72
2022/01/20 09:35:28;;;;;;;9.63;6.73;;;;;;;34.01;5.27;101613.44;5091937;28;20762;-72
2022/01/20 09:37:55;;;;;;;7.15;4.70;;;;;;;33.54;5.43;101612.16;5092263;28;20413;-72
2022/01/20 09:40:22;;;;;;;5.72;4.38;;;;;;;32.83;5.44;101609.41;5090963;28;20454;-72
2022/01/20 09:42:49;;;;;;;6.93;4.55;;;;;;;32.98;5.59;101595.84;5089341;28;20425;-72
2022/01/20 09:45:16;;;;;;;7.10;4.65;;;;;;;33.64;5.50;101595.81;5090977;28;20414;-71
2022/01/20 09:47:44;;;;;;;7.78;4.85;;;;;;;32.37;5.72;101593.09;5090716;28;20563;-71
2022/01/20 09:50:15;;;;;;;7.07;5.47;;;;;;;33.27;5.57;101588.28;5091768;28;20486;-72
2022/01/20 09:52:43;;;;;;;9.23;6.93;;;;;;;33.07;5.69;101577.00;5091305;28;20462;-71
2022/01/20 09:55:11;;;;;;;10.32;7.75;;;;;;;34.04;5.09;101572.47;5091916;28;20432;-73
2022/01/20 09:57:38;;;;;;;7.07;4.72;;;;;;;32.83;5.69;101576.47;5091845;28;20409;-71
2022/01/20 10:00:09;;;;;;;6.65;5.65;;;;;;;32.40;6.03;101573.44;5091739;28;20424;-71
2022/01/20 10:02:37;;;;;;;6.77;5.40;;;;;;;33.47;5.56;101562.09;5092056;28;20425;-71
2022/01/20 10:05:04;;;;;;;8.00;6.83;;;;;;;32.95;5.81;101566.19;5092092;28;20413;-71
2022/01/20 10:07:33;;;;;;;94.85;81.15;;;;;;;34.38;5.29;101563.91;5091560;28;20415;-71
2022/01/20 10:10:02;;;;;;;21.35;15.00;;;;;;;33.68;5.51;101558.47;5091595;28;20405;-71
2022/01/20 10:12:31;;;;;;;9.70;6.88;;;;;;;33.52;5.61;101553.91;5091904;28;20421;-72
2022/01/20 10:14:59;;;;;;;8.48;7.57;;;;;;;33.16;5.71;101534.34;5091461;28;20440;-72
2022/01/20 10:17:28;;;;;;;9.48;7.85;;;;;;;34.28;5.34;101537.19;5091075;28;20432;-72
2022/01/20 10:20:00;;;;;;;9.10;8.02;;;;;;;32.76;5.77;101530.00;5091683;28;20500;-72
2022/01/20 10:22:28;;;;;;;11.07;7.60;;;;;;;32.97;5.88;101524.75;5091164;28;20425;-71
2022/01/20 10:25:03;;;;;;;11.50;10.40;;;;;;;34.16;5.42;101527.50;5091421;28;20866;-72
2022/01/20 10:27:31;;;;;;;8.20;7.20;;;;;;;33.56;5.43;101511.09;5091323;28;20417;-72
2022/01/20 10:30:00;;;;;;;7.25;6.53;;;;;;;34.30;5.19;101512.16;5091276;28;20415;-72
2022/01/20 10:32:27;;;;;;;8.07;5.93;;;;;;;33.12;5.69;101497.50;5089817;28;20417;-71
2022/01/20 10:35:03;;;;;;;8.18;6.00;;;;;;;32.51;5.86;101492.94;5090012;28;20416;-73
2022/01/20 10:37:30;;;;;;;9.23;7.05;;;;;;;31.73;6.18;101487.44;5087381;28;20440;-72
2022/01/20 10:40:07;;;;;;;9.73;8.00;;;;;;;30.64;6.63;101496.66;5078614;28;20436;-71
2022/01/20 10:42:39;;;;;;;12.85;11.48;;;;;;;33.21;5.83;101492.34;5089056;28;20853;-72
2022/01/20 10:45:08;;;;;;;11.67;8.17;;;;;;;32.81;5.80;101479.84;5088693;28;20508;-72
2022/01/20 10:47:36;;;;;;;8.23;6.20;;;;;;;32.60;6.17;101476.88;5089513;28;20472;-71
2022/01/20 10:50:12;;;;;;;7.72;5.90;;;;;;;30.71;6.73;101475.44;5089513;28;20405;-71
2022/01/20 10:52:44;;;;;;;12.95;10.45;;;;;;;31.77;6.61;101471.31;5087574;28;20413;-72
2022/01/20 10:55:22;;;;;;;8.43;5.65;;;;;;;30.23;7.26;101449.28;5088049;28;20439;-71
2022/01/20 10:57:49;;;;;;;7.18;5.57;;;;;;;29.97;7.16;101456.09;5088235;28;20818;-72
2022/01/20 11:00:19;;;;;;;8.40;6.30;;;;;;;30.65;6.86;101459.19;5089133;28;20405;-72
2022/01/20 11:02:50;;;;;;;8.38;5.50;;;;;;;29.92;7.27;101461.44;5089563;28;20425;-72
2022/01/20 11:05:17;;;;;;;9.15;6.90;;;;;;;29.39;7.48;101449.50;5088661;28;20413;-72
2022/01/20 11:07:45;;;;;;;9.38;5.85;;;;;;;30.07;7.52;101453.59;5088275;28;20416;-72
2022/01/20 11:10:12;;;;;;;9.25;6.05;;;;;;;29.30;7.55;101442.72;5090454;28;20455;-72
2022/01/20 11:12:41;;;;;;;8.63;7.05;;;;;;;28.99;7.68;101441.88;5090289;28;20413;-72
2022/01/20 11:15:11;;;;;;;9.25;7.22;;;;;;;28.10;8.11;101433.34;5089989;28;20837;-73
2022/01/20 11:17:40;;;;;;;9.32;5.75;;;;;;;27.51;8.58;101441.00;5090724;28;20413;-72
2022/01/20 11:20:09;;;;;;;9.63;6.40;;;;;;;25.77;9.47;101430.88;5089503;28;20409;-72
2022/01/20 11:22:38;;;;;;;8.07;5.53;;;;;;;25.34;9.66;101411.47;5090742;28;20449;-73
2022/01/20 11:25:08;;;;;;;8.35;5.55;;;;;;;25.53;9.59;101423.41;5091158;28;20416;-73
2022/01/20 11:27:41;;;;;;;8.52;5.32;;;;;;;25.35;9.82;101432.97;5090203;28;20413;-73
2022/01/20 11:30:17;;;;;;;8.77;6.68;;;;;;;24.93;10.25;101417.88;5090182;28;20436;-73
2022/01/20 11:32:57;;;;;;;7.18;5.35;;;;;;;24.40;10.72;101418.50;5090432;28;20463;-75
2022/01/20 11:35:24;;;;;;;8.25;6.70;;;;;;;23.78;11.01;101390.44;5090028;28;20424;-73
2022/01/20 11:37:58;;;;;;;7.97;5.47;;;;;;;23.76;11.46;101393.34;5089400;28;20410;-73
2022/01/20 11:40:25;;;;;;;24.70;22.48;;;;;;;24.82;10.88;101397.63;5087090;28;20425;-72
2022/01/20 11:43:05;;;;;;;8.15;6.20;;;;;;;23.28;11.61;101403.16;5090223;28;20452;-72
2022/01/20 11:45:34;;;;;;;9.40;5.18;;;;;;;22.69;11.76;101391.53;5088531;28;20409;-72
2022/01/20 11:48:15;;;;;;;9.82;6.60;;;;;;;22.16;12.41;101394.38;5089800;28;20790;-72
2022/01/20 11:50:44;;;;;;;8.98;6.38;;;;;;;21.01;13.02;101392.72;5089217;28;20409;-72
2022/01/20 11:53:12;;;;;;;10.45;8.00;;;;;;;20.56;13.48;101383.56;5089802;28;20470;-72
2022/01/20 11:55:46;;;;;;;11.23;7.90;;;;;;;19.80;13.86;101380.47;5088113;28;20413;-73
2022/01/20 11:58:16;;;;;;;16.25;9.73;;;;;;;19.03;14.73;101369.25;5089555;28;20920;-73
2022/01/20 12:00:43;;;;;;;21.58;12.77;;;;;;;19.47;14.67;101378.84;5088656;28;20424;-72
2022/01/20 12:03:13;;;;;;;19.70;12.18;;;;;;;18.46;15.23;101350.34;5089266;28;20433;-73
2022/01/20 12:05:40;;;;;;;15.93;9.93;;;;;;;17.77;15.87;101361.91;5089474;28;20907;-74
2022/01/20 12:08:10;;;;;;;16.60;10.77;;;;;;;17.74;15.66;101354.19;5088782;28;20786;-74
2022/01/20 12:10:38;;;;;;;17.52;12.30;;;;;;;17.29;16.24;101346.34;5089528;28;20787;-74
2022/01/20 12:13:09;;;;;;;12.25;8.52;;;;;;;17.05;16.63;101361.19;5089402;28;20417;-73